createdAt,value
2018-07-28T00:02:20.620Z,101010.92
2018-07-28T00:04:50.723Z,101003.64
2018-07-28T00:07:20.761Z,101010.22
2018-07-28T00:09:50.374Z,101007.20
2018-07-28T00:12:23.700Z,101012.23
2018-07-28T00:14:53.248Z,101013.13
2018-07-28T00:17:23.361Z,101009.23
2018-07-28T00:19:52.872Z,101011.77
2018-07-28T00:22:23.209Z,101001.76
2018-07-28T00:24:52.995Z,100987.95
2018-07-28T00:27:22.624Z,100977.26
2018-07-28T00:29:52.548Z,100974.02
2018-07-28T00:32:22.550Z,100974.47
2018-07-28T00:34:52.327Z,100970.51
2018-07-28T00:37:22.193Z,100977.46
2018-07-28T00:39:53.177Z,100966.77
2018-07-28T00:42:23.501Z,100960.57
2018-07-28T00:44:53.138Z,100951.31
2018-07-28T00:47:23.334Z,100945.02
2018-07-28T00:49:53.225Z,100945.75
2018-07-28T00:52:23.141Z,100940.61
2018-07-28T00:54:53.296Z,100937.88
2018-07-28T00:57:22.866Z,100936.38
2018-07-28T00:59:52.679Z,100941.23
2018-07-28T01:02:22.569Z,100934.84
2018-07-28T01:04:51.968Z,100926.91
2018-07-28T01:07:21.979Z,100927.05
2018-07-28T01:09:52.238Z,100921.53
2018-07-28T01:12:21.706Z,100911.63
2018-07-28T01:14:51.820Z,100905.45
2018-07-28T01:17:21.647Z,100905.41
2018-07-28T01:19:51.045Z,100902.35
2018-07-28T01:22:28.062Z,100901.95
2018-07-28T01:24:57.446Z,100890.85
2018-07-28T01:27:27.423Z,100888.80
2018-07-28T01:29:57.084Z,100889.70
2018-07-28T01:32:26.454Z,100885.23
2018-07-28T01:34:56.308Z,100883.64
2018-07-28T01:37:25.753Z,100883.12
2018-07-28T01:39:55.796Z,100875.28
2018-07-28T01:42:25.204Z,100876.32
2018-07-28T01:44:55.364Z,100869.75
2018-07-28T01:47:24.730Z,100862.24
2018-07-28T01:49:54.400Z,100862.76
2018-07-28T01:52:24.654Z,100857.84
2018-07-28T01:54:55.053Z,100849.47
2018-07-28T01:57:24.470Z,100846.00
2018-07-28T01:59:54.850Z,100841.92
2018-07-28T02:02:24.254Z,100840.98
2018-07-28T02:04:54.622Z,100840.99
2018-07-28T02:07:24.188Z,100836.53
2018-07-28T02:09:53.586Z,100835.48
2018-07-28T02:12:22.896Z,100832.91
2018-07-28T02:14:52.455Z,100825.19
2018-07-28T02:17:21.935Z,100821.86
2018-07-28T02:19:51.633Z,100821.88
2018-07-28T02:22:21.146Z,100816.30
2018-07-28T02:24:50.503Z,100814.04
2018-07-28T02:27:20.823Z,100806.91
2018-07-28T02:29:51.146Z,100809.20
2018-07-28T02:32:21.208Z,100805.26
2018-07-28T02:34:51.008Z,100809.34
2018-07-28T02:37:20.886Z,100795.02
2018-07-28T02:39:50.805Z,100798.59
2018-07-28T02:42:20.499Z,100791.14
2018-07-28T02:44:50.341Z,100786.08
2018-07-28T02:47:20.430Z,100788.28
2018-07-28T02:49:50.069Z,100787.14
2018-07-28T02:52:19.882Z,100778.45
2018-07-28T02:54:49.592Z,100774.37
2018-07-28T02:57:19.334Z,100774.28
2018-07-28T02:59:51.510Z,100779.06
2018-07-28T03:02:21.188Z,100781.46
2018-07-28T03:04:51.509Z,100773.54
2018-07-28T03:07:21.202Z,100770.52
2018-07-28T03:09:51.584Z,100769.45
2018-07-28T03:12:21.177Z,100769.39
2018-07-28T03:14:50.891Z,100766.62
2018-07-28T03:17:20.710Z,100763.84
2018-07-28T03:19:50.002Z,100767.79
2018-07-28T03:22:19.504Z,100760.00
2018-07-28T03:24:48.969Z,100759.23
2018-07-28T03:27:18.808Z,100751.34
2018-07-28T03:29:49.482Z,100747.38
2018-07-28T03:32:19.376Z,100746.86
2018-07-28T03:34:49.495Z,100743.75
2018-07-28T03:37:21.288Z,100742.83
2018-07-28T03:39:51.328Z,100743.75
2018-07-28T03:42:21.423Z,100728.00
2018-07-28T03:44:53.064Z,100723.97
2018-07-28T03:47:22.367Z,100728.45
2018-07-28T03:49:52.207Z,100724.05
2018-07-28T03:52:21.974Z,100724.55
2018-07-28T03:54:51.533Z,100723.78
2018-07-28T03:57:21.757Z,100715.23
2018-07-28T03:59:51.461Z,100720.53
2018-07-28T04:02:21.048Z,100714.44
2018-07-28T04:04:51.183Z,100710.44
2018-07-28T04:07:21.768Z,100719.75
2018-07-28T04:09:51.411Z,100712.13
2018-07-28T04:12:21.346Z,100702.27
2018-07-28T04:14:51.075Z,100698.98
2018-07-28T04:17:20.760Z,100702.08
2018-07-28T04:19:50.638Z,100700.12
2018-07-28T04:22:19.990Z,100701.30
2018-07-28T04:24:49.555Z,100688.66
2018-07-28T04:27:18.897Z,100684.91
2018-07-28T04:29:49.152Z,100681.15
2018-07-28T04:32:18.819Z,100678.53
2018-07-28T04:34:48.444Z,100676.91
2018-07-28T04:37:18.382Z,100675.88
2018-07-28T04:39:48.075Z,100675.36
2018-07-28T04:42:17.848Z,100675.36
2018-07-28T04:44:47.775Z,100668.03
2018-07-28T04:47:17.468Z,100671.67
2018-07-28T04:49:47.103Z,100672.90
2018-07-28T04:52:16.771Z,100679.78
2018-07-28T04:54:46.713Z,100677.19
2018-07-28T04:57:18.181Z,100676.27
2018-07-28T04:59:48.081Z,100673.39
2018-07-28T05:02:17.790Z,100675.70
2018-07-28T05:04:48.957Z,100674.59
2018-07-28T05:07:18.574Z,100669.20
2018-07-28T05:09:48.321Z,100655.86
2018-07-28T05:12:19.608Z,100656.77
2018-07-28T05:14:49.225Z,100658.38
2018-07-28T05:17:18.798Z,100653.17
2018-07-28T05:19:49.262Z,100648.89
2018-07-28T05:22:18.882Z,100650.45
2018-07-28T05:24:48.241Z,100635.43
2018-07-28T05:27:18.646Z,100637.01
2018-07-28T05:29:48.256Z,100636.31
2018-07-28T05:32:18.017Z,100635.47
2018-07-28T05:34:47.726Z,100633.78
2018-07-28T05:37:17.594Z,100633.27
2018-07-28T05:39:48.509Z,100643.18
2018-07-28T05:42:18.052Z,100636.44
2018-07-28T05:44:48.039Z,100632.47
2018-07-28T05:47:17.596Z,100621.24
2018-07-28T05:49:47.470Z,100611.30
2018-07-28T05:52:17.158Z,100615.41
2018-07-28T05:54:46.878Z,100615.12
2018-07-28T05:57:18.347Z,100620.45
2018-07-28T05:59:48.167Z,100614.02
2018-07-28T06:02:17.740Z,100606.47
2018-07-28T06:04:47.699Z,100601.77
2018-07-28T06:07:17.532Z,100597.47
2018-07-28T06:09:47.651Z,100601.05
2018-07-28T06:12:17.625Z,100603.39
2018-07-28T06:14:49.022Z,100605.83
2018-07-28T06:17:18.786Z,100599.78
2018-07-28T06:19:53.355Z,100600.59
2018-07-28T06:22:23.841Z,100604.70
2018-07-28T06:24:54.328Z,100607.84
2018-07-28T06:27:23.677Z,100606.53
2018-07-28T06:29:54.164Z,100607.73
2018-07-28T06:32:23.886Z,100615.45
2018-07-28T06:34:53.739Z,100605.52
2018-07-28T06:37:23.271Z,100603.34
2018-07-28T06:39:53.510Z,100606.30
2018-07-28T06:42:23.602Z,100598.97
2018-07-28T06:44:53.599Z,100598.46
2018-07-28T06:47:23.379Z,100587.52
2018-07-28T06:49:53.257Z,100592.91
2018-07-28T06:52:22.798Z,100585.45
2018-07-28T06:54:53.281Z,100578.41
2018-07-28T06:57:24.641Z,100578.63
2018-07-28T06:59:55.729Z,100581.34
2018-07-28T07:02:25.387Z,100579.04
2018-07-28T07:04:55.090Z,100580.47
2018-07-28T07:07:25.470Z,100579.63
2018-07-28T07:09:54.933Z,100575.31
2018-07-28T07:12:24.689Z,100575.62
2018-07-28T07:14:55.267Z,100575.86
2018-07-28T07:17:24.971Z,100576.88
2018-07-28T07:20:00.849Z,100577.19
2018-07-28T07:22:30.107Z,100585.88
2018-07-28T07:24:59.588Z,100585.44
2018-07-28T07:27:29.223Z,100581.62
2018-07-28T07:29:58.608Z,100582.85
2018-07-28T07:32:28.161Z,100584.77
2018-07-28T07:34:57.931Z,100586.66
2018-07-28T07:37:27.801Z,100581.16
2018-07-28T07:39:57.364Z,100580.95
2018-07-28T07:42:26.783Z,100585.38
2018-07-28T07:44:56.065Z,100578.83
2018-07-28T07:47:25.619Z,100570.56
2018-07-28T07:49:55.768Z,100576.31
2018-07-28T07:52:25.194Z,100573.42
2018-07-28T07:54:54.616Z,100567.74
2018-07-28T07:57:25.422Z,100563.80
2018-07-28T07:59:55.002Z,100563.11
2018-07-28T08:02:24.609Z,100558.05
2018-07-28T08:04:54.818Z,100552.78
2018-07-28T08:07:24.392Z,100550.77
2018-07-28T08:09:53.954Z,100541.95
2018-07-28T08:12:23.585Z,100546.24
2018-07-28T08:14:53.320Z,100544.08
2018-07-28T08:17:23.386Z,100528.56
2018-07-28T08:19:54.017Z,100535.44
2018-07-28T08:22:23.881Z,100534.50
2018-07-28T08:24:53.989Z,100540.84
2018-07-28T08:27:34.520Z,100541.23
2018-07-28T08:30:05.778Z,100547.20
2018-07-28T08:32:35.110Z,100535.67
2018-07-28T08:35:05.107Z,100534.53
2018-07-28T08:37:34.408Z,100532.29
2018-07-28T08:40:04.088Z,100532.83
2018-07-28T08:42:33.437Z,100532.83
2018-07-28T08:45:02.740Z,100527.63
2018-07-28T08:47:33.258Z,100522.88
2018-07-28T08:50:02.618Z,100521.29
2018-07-28T08:52:31.858Z,100515.84
2018-07-28T08:55:01.623Z,100513.32
2018-07-28T08:57:30.935Z,100513.23
2018-07-28T09:00:00.279Z,100513.48
2018-07-28T09:02:29.761Z,100503.89
2018-07-28T09:04:59.188Z,100499.67
2018-07-28T09:07:28.743Z,100501.00
2018-07-28T09:09:58.934Z,100507.29
2018-07-28T09:12:28.493Z,100498.35
2018-07-28T09:14:57.980Z,100492.75
2018-07-28T09:17:28.202Z,100475.08
2018-07-28T09:19:57.812Z,100477.30
2018-07-28T09:22:27.985Z,100475.64
2018-07-28T09:24:59.155Z,100477.21
2018-07-28T09:27:29.133Z,100480.55
2018-07-28T09:29:58.637Z,100475.75
2018-07-28T09:32:28.502Z,100491.31
2018-07-28T09:34:57.974Z,100494.59
2018-07-28T09:37:27.573Z,100495.19
2018-07-28T09:39:58.162Z,100501.42
2018-07-28T09:42:27.701Z,100500.50
2018-07-28T09:44:57.138Z,100494.79
2018-07-28T09:47:27.684Z,100493.36
2018-07-28T09:49:58.472Z,100492.66
2018-07-28T09:52:28.401Z,100505.34
2018-07-28T09:54:58.584Z,100500.17
2018-07-28T09:57:28.397Z,100493.01
2018-07-28T09:59:58.227Z,100494.54
2018-07-28T10:02:28.031Z,100496.17
2018-07-28T10:04:57.682Z,100487.28
2018-07-28T10:07:27.391Z,100485.86
2018-07-28T10:09:57.253Z,100481.73
2018-07-28T10:12:27.275Z,100474.37
2018-07-28T10:14:58.056Z,100472.27
2018-07-28T10:17:28.543Z,100465.48
2018-07-28T10:19:58.100Z,100459.20
2018-07-28T10:22:27.957Z,100453.66
2018-07-28T10:24:57.604Z,100441.08
2018-07-28T10:27:27.425Z,100437.63
2018-07-28T10:29:56.897Z,100433.15
2018-07-28T10:32:26.401Z,100428.95
2018-07-28T10:34:55.896Z,100423.67
2018-07-28T10:37:26.220Z,100424.84
2018-07-28T10:39:56.035Z,100409.84
2018-07-28T10:42:25.567Z,100416.52
2018-07-28T10:44:57.000Z,100408.14
2018-07-28T10:47:26.675Z,100408.70
2018-07-28T10:49:56.633Z,100403.73
2018-07-28T10:52:27.631Z,100401.82
2018-07-28T10:54:58.244Z,100397.26
2018-07-28T10:57:28.996Z,100401.93
2018-07-28T10:59:58.442Z,100392.92
2018-07-28T11:02:28.133Z,100394.28
2018-07-28T11:04:59.628Z,100398.77
2018-07-28T11:07:29.884Z,100396.24
2018-07-28T11:09:59.287Z,100386.55
2018-07-28T11:12:28.727Z,100382.65
2018-07-28T11:14:58.639Z,100387.93
2018-07-28T11:17:28.177Z,100380.72
2018-07-28T11:19:58.804Z,100395.44
2018-07-28T11:22:28.179Z,100394.30
2018-07-28T11:24:57.767Z,100385.70
2018-07-28T11:27:27.495Z,100383.77
2018-07-28T11:29:57.138Z,100380.97
2018-07-28T11:32:39.717Z,100389.87
2018-07-28T11:35:20.174Z,100380.14
2018-07-28T11:38:35.670Z,100378.34
2018-07-28T11:41:16.376Z,100389.96
2018-07-28T11:43:57.788Z,100377.64
2018-07-28T11:46:27.251Z,100381.05
2018-07-28T11:48:56.961Z,100370.41
2018-07-28T11:51:26.540Z,100355.74
2018-07-28T11:53:55.966Z,100348.80
2018-07-28T11:56:25.220Z,100358.19
2018-07-28T11:58:54.780Z,100357.37
2018-07-28T12:01:24.289Z,100357.08
2018-07-28T12:03:53.639Z,100347.11
2018-07-28T12:06:23.575Z,100351.09
2018-07-28T12:08:53.323Z,100355.67
2018-07-28T12:11:23.104Z,100348.24
2018-07-28T12:13:52.989Z,100345.72
2018-07-28T12:16:22.728Z,100357.30
2018-07-28T12:18:52.602Z,100353.67
2018-07-28T12:21:22.261Z,100337.66
2018-07-28T12:23:52.049Z,100335.27
2018-07-28T12:26:22.191Z,100341.28
2018-07-28T12:28:53.907Z,100327.69
2018-07-28T12:31:23.920Z,100328.99
2018-07-28T12:33:54.213Z,100320.62
2018-07-28T12:36:24.687Z,100320.95
2018-07-28T12:38:54.824Z,100312.39
2018-07-28T12:41:31.375Z,100296.09
2018-07-28T12:44:01.117Z,100304.39
2018-07-28T12:46:30.434Z,100291.02
2018-07-28T12:49:01.882Z,100294.63
2018-07-28T12:51:31.431Z,100289.33
2018-07-28T12:54:00.877Z,100279.19
2018-07-28T12:56:30.491Z,100267.11
2018-07-28T12:59:00.119Z,100275.69
2018-07-28T13:01:29.657Z,100267.22
2018-07-28T13:03:59.824Z,100274.70
2018-07-28T13:06:29.322Z,100254.70
2018-07-28T13:08:58.928Z,100254.13
2018-07-28T13:11:28.758Z,100249.44
2018-07-28T13:13:58.308Z,100245.03
2018-07-28T13:16:35.729Z,100247.17
2018-07-28T13:19:05.227Z,100248.58
2018-07-28T13:21:34.802Z,100248.61
2018-07-28T13:24:04.476Z,100235.41
2018-07-28T13:26:34.072Z,100228.83
2018-07-28T13:29:04.069Z,100236.32
2018-07-28T13:31:33.559Z,100228.77
2018-07-28T13:34:02.920Z,100221.95
2018-07-28T13:36:32.481Z,100224.54
2018-07-28T13:39:03.008Z,100225.11
2018-07-28T13:41:32.706Z,100230.30
2018-07-28T13:44:02.317Z,100230.32
2018-07-28T13:46:32.061Z,100226.13
2018-07-28T13:49:01.710Z,100227.53
2018-07-28T13:51:31.313Z,100222.94
2018-07-28T13:54:00.864Z,100234.13
2018-07-28T13:56:30.278Z,100223.73
2018-07-28T13:58:59.715Z,100218.02
2018-07-28T14:01:29.703Z,100222.83
2018-07-28T14:03:59.116Z,100218.37
2018-07-28T14:06:29.541Z,100220.30
2018-07-28T14:08:59.195Z,100215.49
2018-07-28T14:11:28.637Z,100229.31
2018-07-28T14:13:58.028Z,100226.46
2018-07-28T14:16:29.132Z,100227.16
2018-07-28T14:18:58.953Z,100226.66
2018-07-28T14:21:28.570Z,100218.48
2018-07-28T14:23:58.203Z,100210.13
2018-07-28T14:26:27.624Z,100221.06
2018-07-28T14:28:57.036Z,100227.28
2018-07-28T14:31:26.963Z,100234.11
2018-07-28T14:33:56.463Z,100231.09
2018-07-28T14:36:26.413Z,100239.35
2018-07-28T14:38:55.942Z,100241.55
2018-07-28T14:41:25.439Z,100242.31
2018-07-28T14:43:54.948Z,100248.13
2018-07-28T14:46:24.437Z,100277.82
2018-07-28T14:48:53.918Z,100371.10
2018-07-28T14:51:24.466Z,100396.14
2018-07-28T14:53:54.058Z,100405.14
2018-07-28T14:56:23.481Z,100437.02
2018-07-28T14:58:53.324Z,100429.42
2018-07-28T15:01:23.698Z,100436.28
2018-07-28T15:03:53.832Z,100427.17
2018-07-28T15:06:24.544Z,100449.73
2018-07-28T15:08:54.311Z,100453.03
2018-07-28T15:11:24.942Z,100486.34
2018-07-28T15:13:56.292Z,100491.69
2018-07-28T15:16:26.416Z,100493.80
2018-07-28T15:18:55.734Z,100490.58
2018-07-28T15:21:25.402Z,100494.95
2018-07-28T15:23:54.857Z,100487.26
2018-07-28T15:26:25.147Z,100480.55
2018-07-28T15:28:55.029Z,100488.09
2018-07-28T15:31:24.877Z,100499.05
2018-07-28T15:33:55.138Z,100513.65
2018-07-28T15:36:25.849Z,100501.75
2018-07-28T15:38:55.613Z,100492.59
2018-07-28T15:41:25.426Z,100486.36
2018-07-28T15:43:55.146Z,100486.09
2018-07-28T15:46:26.659Z,100480.87
2018-07-28T15:48:56.483Z,100490.94
2018-07-28T15:51:26.352Z,100494.66
2018-07-28T15:53:56.095Z,100499.42
2018-07-28T15:56:26.213Z,100490.96
2018-07-28T15:58:56.033Z,100498.13
2018-07-28T16:01:25.976Z,100506.14
2018-07-28T16:03:55.528Z,100499.74
2018-07-28T16:06:24.885Z,100490.94
2018-07-28T16:08:54.339Z,100488.23
2018-07-28T16:11:24.094Z,100489.59
2018-07-28T16:13:54.385Z,100494.17
2018-07-28T16:16:24.205Z,100499.66
2018-07-28T16:18:53.925Z,100504.58
2018-07-28T16:21:23.580Z,100526.96
2018-07-28T16:23:56.514Z,100528.14
2018-07-28T16:26:30.237Z,100538.81
2018-07-28T16:29:00.588Z,100551.86
2018-07-28T16:31:30.137Z,100555.05
2018-07-28T16:34:06.209Z,100560.02
2018-07-28T16:36:35.633Z,100553.27
2018-07-28T16:39:07.982Z,100558.85
2018-07-28T16:41:42.948Z,100566.95
2018-07-28T16:44:15.138Z,100581.03
2018-07-28T16:46:45.195Z,100577.05
2018-07-28T16:49:15.730Z,100582.03
2018-07-28T16:51:45.775Z,100585.73
2018-07-28T16:54:18.765Z,100592.00
2018-07-28T16:56:49.051Z,100597.58
2018-07-28T16:59:18.952Z,100595.98
2018-07-28T17:01:49.430Z,100600.70
2018-07-28T17:04:19.274Z,100603.34
2018-07-28T17:06:49.835Z,100603.70
2018-07-28T17:09:20.037Z,100603.47
2018-07-28T17:11:50.735Z,100606.31
2018-07-28T17:14:20.687Z,100603.48
2018-07-28T17:16:50.531Z,100603.23
2018-07-28T17:19:20.310Z,100610.23
2018-07-28T17:21:54.178Z,100609.45
2018-07-28T17:24:24.828Z,100608.41
2018-07-28T17:26:54.922Z,100606.02
2018-07-28T17:29:25.412Z,100609.11
2018-07-28T17:31:56.333Z,100603.77
2018-07-28T17:36:55.643Z,100621.77
2018-07-28T17:39:26.188Z,100627.28
2018-07-28T17:41:56.891Z,100625.08
2018-07-28T17:44:29.096Z,100623.39
2018-07-28T17:46:58.601Z,100632.53
2018-07-28T17:49:31.070Z,100633.18
2018-07-28T17:52:00.738Z,100641.02
2018-07-28T17:54:30.588Z,100650.19
2018-07-28T17:57:01.148Z,100645.41
2018-07-28T17:59:30.651Z,100647.73
2018-07-28T18:02:00.161Z,100653.56
2018-07-28T18:04:30.548Z,100659.84
2018-07-28T18:07:00.113Z,100647.30
2018-07-28T18:09:29.642Z,100651.05
2018-07-28T18:11:59.072Z,100648.92
2018-07-28T18:14:28.459Z,100644.72
2018-07-28T18:16:58.475Z,100638.27
2018-07-28T18:21:56.771Z,100654.80
2018-07-28T18:24:27.342Z,100643.98
2018-07-28T18:26:57.687Z,100631.30
2018-07-28T18:29:27.330Z,100629.09
2018-07-28T18:31:57.316Z,100629.62
2018-07-28T18:34:27.830Z,100630.90
2018-07-28T18:36:57.865Z,100640.61
2018-07-28T18:39:27.636Z,100639.11
2018-07-28T18:41:57.934Z,100645.83
2018-07-28T18:44:28.023Z,100656.77
2018-07-28T18:46:58.992Z,100668.08
2018-07-28T18:49:28.865Z,100671.92
2018-07-28T18:51:58.535Z,100681.78
2018-07-28T18:54:28.147Z,100692.69
2018-07-28T18:56:58.227Z,100704.46
2018-07-28T18:59:28.830Z,100712.98
2018-07-28T19:01:59.506Z,100727.63
2018-07-28T19:04:29.597Z,100719.70
2018-07-28T19:06:59.909Z,100732.80
2018-07-28T19:09:35.908Z,100734.97
2018-07-28T19:12:05.967Z,100736.25
2018-07-28T19:14:37.979Z,100731.86
2018-07-28T19:17:07.724Z,100714.94
2018-07-28T19:19:37.830Z,100725.66
2018-07-28T19:22:12.936Z,100725.42
2018-07-28T19:24:43.654Z,100726.50
2018-07-28T19:27:13.971Z,100732.59
2018-07-28T19:29:45.193Z,100739.02
2018-07-28T19:32:16.155Z,100755.98
2018-07-28T19:34:46.384Z,100762.78
2018-07-28T19:37:23.155Z,100760.95
2018-07-28T19:39:53.609Z,100750.30
2018-07-28T19:42:28.734Z,100746.27
2018-07-28T19:44:58.256Z,100751.70
2018-07-28T19:47:28.640Z,100749.75
2018-07-28T19:49:58.211Z,100761.69
2018-07-28T19:52:27.700Z,100764.33
2018-07-28T19:54:58.057Z,100761.58
2018-07-28T19:57:29.262Z,100773.30
2018-07-28T19:59:59.444Z,100770.36
2018-07-28T20:02:28.873Z,100778.69
2018-07-28T20:04:59.268Z,100769.03
2018-07-28T20:07:28.676Z,100756.06
2018-07-28T20:09:57.993Z,100759.63
2018-07-28T20:12:27.907Z,100757.28
2018-07-28T20:14:57.577Z,100760.98
2018-07-28T20:17:27.307Z,100770.50
2018-07-28T20:19:57.813Z,100773.84
2018-07-28T20:22:39.853Z,100785.34
2018-07-28T20:25:10.259Z,100793.42
2018-07-28T20:27:39.677Z,100783.95
2018-07-28T20:30:08.971Z,100787.98
2018-07-28T20:32:38.261Z,100787.33
2018-07-28T20:35:07.536Z,100789.19
2018-07-28T20:37:38.241Z,100797.34
2018-07-28T20:40:08.225Z,100792.06
2018-07-28T20:42:37.537Z,100804.18
2018-07-28T20:45:07.177Z,100808.92
2018-07-28T20:47:36.498Z,100815.86
2018-07-28T20:50:06.854Z,100825.05
2018-07-28T20:52:36.343Z,100831.14
2018-07-28T20:55:06.188Z,100841.53
2018-07-28T20:57:35.650Z,100859.56
2018-07-28T21:00:04.983Z,100864.48
2018-07-28T21:02:34.244Z,100858.69
2018-07-28T21:05:04.211Z,100860.02
2018-07-28T21:07:34.136Z,100868.53
2018-07-28T21:10:03.566Z,100877.89
2018-07-28T21:12:32.917Z,100879.09
2018-07-28T21:15:02.180Z,100887.77
2018-07-28T21:17:31.869Z,100883.68
2018-07-28T21:20:01.337Z,100894.75
2018-07-28T21:22:30.690Z,100890.85
2018-07-28T21:25:01.529Z,100889.34
2018-07-28T21:27:30.809Z,100883.55
2018-07-28T21:30:00.440Z,100894.42
2018-07-28T21:32:30.864Z,100907.31
2018-07-28T21:35:00.683Z,100895.11
2018-07-28T21:37:29.941Z,100886.93
2018-07-28T21:40:00.625Z,100887.27
2018-07-28T21:42:29.970Z,100888.83
2018-07-28T21:45:00.748Z,100893.41
2018-07-28T21:47:30.440Z,100897.47
2018-07-28T21:49:59.835Z,100897.13
2018-07-28T21:52:29.072Z,100902.75
2018-07-28T21:54:59.273Z,100901.92
2018-07-28T21:57:28.966Z,100908.53
2018-07-28T21:59:58.321Z,100901.56
2018-07-28T22:02:27.990Z,100901.87
2018-07-28T22:04:57.294Z,100904.42
2018-07-28T22:07:26.880Z,100904.45
2018-07-28T22:09:56.459Z,100909.01
2018-07-28T22:12:25.891Z,100911.01
2018-07-28T22:14:55.282Z,100910.50
2018-07-28T22:17:25.311Z,100915.39
2018-07-28T22:19:54.946Z,100917.09
2018-07-28T22:22:24.176Z,100925.94
2018-07-28T22:24:53.711Z,100940.02
2018-07-28T22:27:23.084Z,100936.45
2018-07-28T22:29:52.457Z,100936.11
2018-07-28T22:32:22.472Z,100946.98
2018-07-28T22:34:52.750Z,100945.18
2018-07-28T22:37:21.988Z,100940.98
2018-07-28T22:39:51.481Z,100947.78
2018-07-28T22:42:22.118Z,100952.17
2018-07-28T22:44:51.529Z,100951.87
2018-07-28T22:47:20.931Z,100952.86
2018-07-28T22:49:51.982Z,100957.28
2018-07-28T22:52:21.295Z,100960.33
2018-07-28T22:54:50.646Z,100960.66
2018-07-28T22:57:20.278Z,100955.72
2018-07-28T22:59:49.534Z,100967.77
2018-07-28T23:02:18.992Z,100978.23
2018-07-28T23:04:48.370Z,100974.00
2018-07-28T23:07:18.243Z,100977.20
2018-07-28T23:09:48.649Z,100981.95
2018-07-28T23:12:23.396Z,100997.81
2018-07-28T23:14:53.978Z,101000.87
2018-07-28T23:17:31.862Z,101000.87
2018-07-28T23:20:03.624Z,101008.80
2018-07-28T23:22:32.918Z,101005.91
2018-07-28T23:25:02.720Z,100999.13
2018-07-28T23:27:33.256Z,101001.16
2018-07-28T23:32:55.143Z,101006.20
2018-07-28T23:35:25.122Z,101005.53
2018-07-28T23:37:54.564Z,101009.26
2018-07-28T23:40:23.970Z,101005.52
2018-07-28T23:42:53.298Z,101012.81
2018-07-28T23:45:22.989Z,101010.27
2018-07-28T23:47:54.176Z,101008.88
2018-07-28T23:50:23.492Z,101007.67
2018-07-28T23:52:52.738Z,101012.55
2018-07-28T23:55:22.569Z,101015.92
2018-07-28T23:57:52.233Z,101008.26
